Terminal Aerodrome Forecast
Issued by NWS Sioux Falls, SD

Home | Current Version | Previous Version | Text Only | Print | Product List | Glossary Off
Versions: 1 2 3 4 5 6 7 8 9 10 11 12 13 14 15 16 17 18

218
FTUS43 KFSD 222336
TAFFSD
TAF
KFSD 222336Z 2300/2324 13009KT P6SM BKN050
     FM230300 12008KT P6SM VCSH BKN060
      TEMPO 2307/2309 3SM -TSRA BKN035CB
     FM231300 14007KT P6SM BKN070
     FM231800 16013G21KT P6SM SCT100=

USA.gov is the U.S. government's official web portal to all federal, state and local government web resources and services.